sensor_id;sensor_type;location;lat;lon;timestamp;temperature;humidity
77829;DHT22;67019;51.034;3.728;2023-12-14T00:01:35;9.50;99.90
77829;DHT22;67019;51.034;3.728;2023-12-14T00:04:04;9.60;99.90
77829;DHT22;67019;51.034;3.728;2023-12-14T00:06:35;9.60;99.90
77829;DHT22;67019;51.034;3.728;2023-12-14T00:09:05;9.60;99.90
77829;DHT22;67019;51.034;3.728;2023-12-14T00:11:41;9.50;99.90
77829;DHT22;67019;51.034;3.728;2023-12-14T00:14:08;9.40;99.90
77829;DHT22;67019;51.034;3.728;2023-12-14T00:16:36;9.50;99.90
77829;DHT22;67019;51.034;3.728;2023-12-14T00:19:05;9.30;99.90
77829;DHT22;67019;51.034;3.728;2023-12-14T00:21:37;9.30;99.90
77829;DHT22;67019;51.034;3.728;2023-12-14T00:24:02;9.40;99.90
77829;DHT22;67019;51.034;3.728;2023-12-14T00:26:32;9.30;99.90
77829;DHT22;67019;51.034;3.728;2023-12-14T00:29:01;9.30;99.90
77829;DHT22;67019;51.034;3.728;2023-12-14T00:31:31;9.40;99.90
77829;DHT22;67019;51.034;3.728;2023-12-14T00:33:59;9.30;99.90
77829;DHT22;67019;51.034;3.728;2023-12-14T00:36:27;9.30;99.90
77829;DHT22;67019;51.034;3.728;2023-12-14T00:38:57;8.60;99.90
77829;DHT22;67019;51.034;3.728;2023-12-14T00:41:25;9.20;99.90
77829;DHT22;67019;51.034;3.728;2023-12-14T00:43:57;9.10;99.90
77829;DHT22;67019;51.034;3.728;2023-12-14T00:46:21;8.90;99.90
77829;DHT22;67019;51.034;3.728;2023-12-14T00:48:49;9.00;99.90
77829;DHT22;67019;51.034;3.728;2023-12-14T00:51:17;8.90;99.90
77829;DHT22;67019;51.034;3.728;2023-12-14T00:53:44;9.60;99.90
77829;DHT22;67019;51.034;3.728;2023-12-14T00:56:14;8.90;99.90
77829;DHT22;67019;51.034;3.728;2023-12-14T00:58:45;9.10;99.90
77829;DHT22;67019;51.034;3.728;2023-12-14T01:01:14;8.90;99.90
77829;DHT22;67019;51.034;3.728;2023-12-14T01:03:42;8.50;99.90
77829;DHT22;67019;51.034;3.728;2023-12-14T01:06:09;8.60;99.90
77829;DHT22;67019;51.034;3.728;2023-12-14T01:08:37;8.60;99.90
77829;DHT22;67019;51.034;3.728;2023-12-14T01:11:05;8.50;99.90
77829;DHT22;67019;51.034;3.728;2023-12-14T01:13:32;8.40;99.90
77829;DHT22;67019;51.034;3.728;2023-12-14T01:16:00;8.40;99.90
77829;DHT22;67019;51.034;3.728;2023-12-14T01:18:28;8.30;99.90
77829;DHT22;67019;51.034;3.728;2023-12-14T01:21:02;8.20;99.90
77829;DHT22;67019;51.034;3.728;2023-12-14T01:23:30;8.00;99.90
77829;DHT22;67019;51.034;3.728;2023-12-14T01:25:58;8.00;99.90
77829;DHT22;67019;51.034;3.728;2023-12-14T01:28:25;8.10;99.90
77829;DHT22;67019;51.034;3.728;2023-12-14T01:30:53;8.00;99.90
77829;DHT22;67019;51.034;3.728;2023-12-14T01:33:21;7.90;99.90
77829;DHT22;67019;51.034;3.728;2023-12-14T01:35:48;8.00;99.90
77829;DHT22;67019;51.034;3.728;2023-12-14T01:38:19;8.00;99.90
77829;DHT22;67019;51.034;3.728;2023-12-14T01:40:46;8.10;99.90
77829;DHT22;67019;51.034;3.728;2023-12-14T01:43:14;8.00;99.90
77829;DHT22;67019;51.034;3.728;2023-12-14T01:45:42;8.00;99.90
77829;DHT22;67019;51.034;3.728;2023-12-14T01:48:11;7.90;99.90
77829;DHT22;67019;51.034;3.728;2023-12-14T01:50:39;8.00;99.90
77829;DHT22;67019;51.034;3.728;2023-12-14T01:53:06;7.80;99.90
77829;DHT22;67019;51.034;3.728;2023-12-14T01:55:34;7.80;99.90
77829;DHT22;67019;51.034;3.728;2023-12-14T01:58:02;7.80;99.90
77829;DHT22;67019;51.034;3.728;2023-12-14T02:00:39;6.10;99.90
77829;DHT22;67019;51.034;3.728;2023-12-14T02:03:06;7.60;99.90
77829;DHT22;67019;51.034;3.728;2023-12-14T02:05:34;7.60;99.90
77829;DHT22;67019;51.034;3.728;2023-12-14T02:08:01;7.60;99.90
77829;DHT22;67019;51.034;3.728;2023-12-14T02:10:29;7.60;99.90
77829;DHT22;67019;51.034;3.728;2023-12-14T02:12:57;7.10;99.90
77829;DHT22;67019;51.034;3.728;2023-12-14T02:15:25;7.60;99.90
77829;DHT22;67019;51.034;3.728;2023-12-14T02:17:52;7.30;99.90
77829;DHT22;67019;51.034;3.728;2023-12-14T02:20:21;7.30;99.90
77829;DHT22;67019;51.034;3.728;2023-12-14T02:22:50;7.30;99.90
77829;DHT22;67019;51.034;3.728;2023-12-14T02:25:19;7.40;99.90
77829;DHT22;67019;51.034;3.728;2023-12-14T02:27:47;7.40;99.90
77829;DHT22;67019;51.034;3.728;2023-12-14T02:30:17;7.50;99.90
77829;DHT22;67019;51.034;3.728;2023-12-14T02:32:46;7.50;99.90
77829;DHT22;67019;51.034;3.728;2023-12-14T02:35:15;7.50;99.90
77829;DHT22;67019;51.034;3.728;2023-12-14T02:37:44;7.40;99.90
77829;DHT22;67019;51.034;3.728;2023-12-14T02:40:11;7.50;99.90
77829;DHT22;67019;51.034;3.728;2023-12-14T02:42:39;7.50;99.90
77829;DHT22;67019;51.034;3.728;2023-12-14T02:45:08;7.50;99.90
77829;DHT22;67019;51.034;3.728;2023-12-14T02:47:36;7.50;99.90
77829;DHT22;67019;51.034;3.728;2023-12-14T02:50:05;7.30;99.90
77829;DHT22;67019;51.034;3.728;2023-12-14T02:52:34;7.70;99.90
77829;DHT22;67019;51.034;3.728;2023-12-14T02:55:02;7.40;99.90
77829;DHT22;67019;51.034;3.728;2023-12-14T02:57:30;7.40;99.90
77829;DHT22;67019;51.034;3.728;2023-12-14T02:59:57;7.50;99.90
77829;DHT22;67019;51.034;3.728;2023-12-14T03:02:25;7.50;99.90
77829;DHT22;67019;51.034;3.728;2023-12-14T03:04:53;7.60;99.90
77829;DHT22;67019;51.034;3.728;2023-12-14T03:07:20;7.40;99.90
77829;DHT22;67019;51.034;3.728;2023-12-14T03:09:48;7.50;99.90
77829;DHT22;67019;51.034;3.728;2023-12-14T03:12:16;7.50;99.90
77829;DHT22;67019;51.034;3.728;2023-12-14T03:14:48;7.50;99.90
77829;DHT22;67019;51.034;3.728;2023-12-14T03:17:12;7.50;99.90
77829;DHT22;67019;51.034;3.728;2023-12-14T03:19:40;7.40;99.90
77829;DHT22;67019;51.034;3.728;2023-12-14T03:22:08;7.40;99.90
77829;DHT22;67019;51.034;3.728;2023-12-14T03:24:36;7.60;99.90
77829;DHT22;67019;51.034;3.728;2023-12-14T03:27:04;7.50;99.90
77829;DHT22;67019;51.034;3.728;2023-12-14T03:29:32;7.60;99.90
77829;DHT22;67019;51.034;3.728;2023-12-14T03:32:00;7.50;99.90
77829;DHT22;67019;51.034;3.728;2023-12-14T03:34:29;7.50;99.90
77829;DHT22;67019;51.034;3.728;2023-12-14T03:36:58;7.60;99.90
77829;DHT22;67019;51.034;3.728;2023-12-14T03:39:26;7.60;99.90
77829;DHT22;67019;51.034;3.728;2023-12-14T03:41:53;7.50;99.90
77829;DHT22;67019;51.034;3.728;2023-12-14T03:44:21;7.50;99.90
77829;DHT22;67019;51.034;3.728;2023-12-14T03:46:51;7.60;99.90
77829;DHT22;67019;51.034;3.728;2023-12-14T03:49:20;7.70;99.90
77829;DHT22;67019;51.034;3.728;2023-12-14T03:51:47;7.60;99.90
77829;DHT22;67019;51.034;3.728;2023-12-14T03:54:15;7.50;99.90
77829;DHT22;67019;51.034;3.728;2023-12-14T03:56:43;7.40;99.90
77829;DHT22;67019;51.034;3.728;2023-12-14T03:59:11;7.30;99.90
77829;DHT22;67019;51.034;3.728;2023-12-14T04:01:40;7.30;99.90
77829;DHT22;67019;51.034;3.728;2023-12-14T04:04:21;7.20;99.90
77829;DHT22;67019;51.034;3.728;2023-12-14T04:06:36;7.10;99.90
77829;DHT22;67019;51.034;3.728;2023-12-14T04:09:04;7.20;99.90
77829;DHT22;67019;51.034;3.728;2023-12-14T04:11:32;7.30;99.90
77829;DHT22;67019;51.034;3.728;2023-12-14T04:14:00;7.40;99.90
77829;DHT22;67019;51.034;3.728;2023-12-14T04:16:27;7.40;99.90
77829;DHT22;67019;51.034;3.728;2023-12-14T04:18:56;7.50;99.90
77829;DHT22;67019;51.034;3.728;2023-12-14T04:21:24;7.50;99.90
77829;DHT22;67019;51.034;3.728;2023-12-14T04:23:52;7.30;99.90
77829;DHT22;67019;51.034;3.728;2023-12-14T04:26:20;7.20;99.90
77829;DHT22;67019;51.034;3.728;2023-12-14T04:28:49;7.30;99.90
77829;DHT22;67019;51.034;3.728;2023-12-14T04:31:17;7.50;99.90
77829;DHT22;67019;51.034;3.728;2023-12-14T04:33:44;7.50;99.90
77829;DHT22;67019;51.034;3.728;2023-12-14T04:36:12;7.50;99.90
77829;DHT22;67019;51.034;3.728;2023-12-14T04:38:40;7.50;99.90
77829;DHT22;67019;51.034;3.728;2023-12-14T04:41:07;7.50;99.90
77829;DHT22;67019;51.034;3.728;2023-12-14T04:43:35;7.70;99.90
77829;DHT22;67019;51.034;3.728;2023-12-14T04:46:03;7.70;99.90
77829;DHT22;67019;51.034;3.728;2023-12-14T04:48:32;7.80;99.90
77829;DHT22;67019;51.034;3.728;2023-12-14T04:51:02;7.60;99.90
77829;DHT22;67019;51.034;3.728;2023-12-14T04:53:29;7.50;99.90
77829;DHT22;67019;51.034;3.728;2023-12-14T04:56:01;7.40;99.90
77829;DHT22;67019;51.034;3.728;2023-12-14T04:58:26;7.40;99.90
77829;DHT22;67019;51.034;3.728;2023-12-14T05:00:54;7.40;99.90
77829;DHT22;67019;51.034;3.728;2023-12-14T05:03:21;7.50;99.90
77829;DHT22;67019;51.034;3.728;2023-12-14T05:05:49;7.40;99.90
77829;DHT22;67019;51.034;3.728;2023-12-14T05:08:17;7.30;99.90
77829;DHT22;67019;51.034;3.728;2023-12-14T05:10:45;7.30;99.90
77829;DHT22;67019;51.034;3.728;2023-12-14T05:13:13;7.30;99.90
77829;DHT22;67019;51.034;3.728;2023-12-14T05:15:42;7.30;99.90
77829;DHT22;67019;51.034;3.728;2023-12-14T05:18:10;7.10;99.90
77829;DHT22;67019;51.034;3.728;2023-12-14T05:20:42;7.00;99.90
77829;DHT22;67019;51.034;3.728;2023-12-14T05:23:09;7.10;99.90
77829;DHT22;67019;51.034;3.728;2023-12-14T05:25:36;7.30;99.90
77829;DHT22;67019;51.034;3.728;2023-12-14T05:28:05;7.30;99.90
77829;DHT22;67019;51.034;3.728;2023-12-14T05:30:33;7.40;99.90
77829;DHT22;67019;51.034;3.728;2023-12-14T05:33:02;7.50;99.90
77829;DHT22;67019;51.034;3.728;2023-12-14T05:35:30;7.40;99.90
77829;DHT22;67019;51.034;3.728;2023-12-14T05:37:59;7.50;99.90
77829;DHT22;67019;51.034;3.728;2023-12-14T05:40:27;7.60;99.90
77829;DHT22;67019;51.034;3.728;2023-12-14T05:42:55;7.60;99.90
77829;DHT22;67019;51.034;3.728;2023-12-14T05:45:22;7.60;99.90
77829;DHT22;67019;51.034;3.728;2023-12-14T05:47:50;7.60;99.90
77829;DHT22;67019;51.034;3.728;2023-12-14T05:50:18;7.50;99.90
77829;DHT22;67019;51.034;3.728;2023-12-14T05:52:45;7.60;99.90
77829;DHT22;67019;51.034;3.728;2023-12-14T05:55:13;7.50;99.90
77829;DHT22;67019;51.034;3.728;2023-12-14T05:57:41;7.60;99.90
77829;DHT22;67019;51.034;3.728;2023-12-14T06:00:08;7.50;99.90
77829;DHT22;67019;51.034;3.728;2023-12-14T06:02:36;7.50;99.90
77829;DHT22;67019;51.034;3.728;2023-12-14T06:05:06;7.60;99.90
77829;DHT22;67019;51.034;3.728;2023-12-14T06:07:34;7.50;99.90
77829;DHT22;67019;51.034;3.728;2023-12-14T06:10:04;7.60;99.90
77829;DHT22;67019;51.034;3.728;2023-12-14T06:12:31;7.70;99.90
77829;DHT22;67019;51.034;3.728;2023-12-14T06:14:58;7.90;99.90
77829;DHT22;67019;51.034;3.728;2023-12-14T06:17:26;7.80;99.90
77829;DHT22;67019;51.034;3.728;2023-12-14T06:19:54;7.60;99.90
77829;DHT22;67019;51.034;3.728;2023-12-14T06:22:21;7.80;99.90
77829;DHT22;67019;51.034;3.728;2023-12-14T06:24:49;7.60;99.90
77829;DHT22;67019;51.034;3.728;2023-12-14T06:27:17;7.50;99.90
77829;DHT22;67019;51.034;3.728;2023-12-14T06:29:45;7.50;99.90
77829;DHT22;67019;51.034;3.728;2023-12-14T06:32:14;7.70;99.90
77829;DHT22;67019;51.034;3.728;2023-12-14T06:34:42;7.70;99.90
77829;DHT22;67019;51.034;3.728;2023-12-14T06:37:14;7.30;99.90
77829;DHT22;67019;51.034;3.728;2023-12-14T06:39:44;7.20;99.90
77829;DHT22;67019;51.034;3.728;2023-12-14T06:42:12;7.00;99.90
77829;DHT22;67019;51.034;3.728;2023-12-14T06:44:40;7.00;99.90
77829;DHT22;67019;51.034;3.728;2023-12-14T06:47:08;7.10;99.90
77829;DHT22;67019;51.034;3.728;2023-12-14T06:49:35;7.20;99.90
77829;DHT22;67019;51.034;3.728;2023-12-14T06:52:03;7.60;99.90
77829;DHT22;67019;51.034;3.728;2023-12-14T06:54:31;7.40;99.90
77829;DHT22;67019;51.034;3.728;2023-12-14T06:56:59;7.20;99.90
77829;DHT22;67019;51.034;3.728;2023-12-14T06:59:26;7.30;99.90
77829;DHT22;67019;51.034;3.728;2023-12-14T07:01:54;7.20;99.90
77829;DHT22;67019;51.034;3.728;2023-12-14T07:04:23;7.30;99.90
77829;DHT22;67019;51.034;3.728;2023-12-14T07:06:55;7.10;99.90
77829;DHT22;67019;51.034;3.728;2023-12-14T07:09:24;7.20;99.90
77829;DHT22;67019;51.034;3.728;2023-12-14T07:11:52;7.10;99.90
77829;DHT22;67019;51.034;3.728;2023-12-14T07:14:20;7.10;99.90
77829;DHT22;67019;51.034;3.728;2023-12-14T07:16:47;7.30;99.90
77829;DHT22;67019;51.034;3.728;2023-12-14T07:19:16;7.20;99.90
77829;DHT22;67019;51.034;3.728;2023-12-14T07:21:44;7.00;99.90
77829;DHT22;67019;51.034;3.728;2023-12-14T07:24:12;6.90;99.90
77829;DHT22;67019;51.034;3.728;2023-12-14T07:26:41;6.70;99.90
77829;DHT22;67019;51.034;3.728;2023-12-14T07:29:08;6.90;99.90
77829;DHT22;67019;51.034;3.728;2023-12-14T07:31:36;7.00;99.90
77829;DHT22;67019;51.034;3.728;2023-12-14T07:34:03;7.00;99.90
77829;DHT22;67019;51.034;3.728;2023-12-14T07:36:34;6.90;99.90
77829;DHT22;67019;51.034;3.728;2023-12-14T07:39:02;6.60;99.90
77829;DHT22;67019;51.034;3.728;2023-12-14T07:41:32;6.40;99.90
77829;DHT22;67019;51.034;3.728;2023-12-14T07:44:01;6.20;99.90
77829;DHT22;67019;51.034;3.728;2023-12-14T07:46:31;6.20;99.90
77829;DHT22;67019;51.034;3.728;2023-12-14T07:48:59;6.10;99.90
77829;DHT22;67019;51.034;3.728;2023-12-14T07:51:28;6.20;99.90
77829;DHT22;67019;51.034;3.728;2023-12-14T07:53:57;6.30;99.90
77829;DHT22;67019;51.034;3.728;2023-12-14T07:56:25;6.40;99.90
77829;DHT22;67019;51.034;3.728;2023-12-14T07:58:54;6.60;99.90
77829;DHT22;67019;51.034;3.728;2023-12-14T08:01:21;6.70;99.90
77829;DHT22;67019;51.034;3.728;2023-12-14T08:03:49;6.80;99.90
77829;DHT22;67019;51.034;3.728;2023-12-14T08:06:17;6.90;99.90
77829;DHT22;67019;51.034;3.728;2023-12-14T08:08:44;7.00;99.90
77829;DHT22;67019;51.034;3.728;2023-12-14T08:11:12;6.80;99.90
77829;DHT22;67019;51.034;3.728;2023-12-14T08:13:41;6.70;99.90
77829;DHT22;67019;51.034;3.728;2023-12-14T08:16:09;6.70;99.90
77829;DHT22;67019;51.034;3.728;2023-12-14T08:18:37;6.60;99.90
77829;DHT22;67019;51.034;3.728;2023-12-14T08:21:06;6.50;99.90
77829;DHT22;67019;51.034;3.728;2023-12-14T08:23:35;6.50;99.90
77829;DHT22;67019;51.034;3.728;2023-12-14T08:26:03;6.50;99.90
77829;DHT22;67019;51.034;3.728;2023-12-14T08:28:31;6.60;99.90
77829;DHT22;67019;51.034;3.728;2023-12-14T08:31:01;6.70;99.90
77829;DHT22;67019;51.034;3.728;2023-12-14T08:33:31;6.80;99.90
77829;DHT22;67019;51.034;3.728;2023-12-14T08:36:00;6.90;99.90
77829;DHT22;67019;51.034;3.728;2023-12-14T08:38:35;6.80;99.90
77829;DHT22;67019;51.034;3.728;2023-12-14T08:41:00;4.30;99.90
77829;DHT22;67019;51.034;3.728;2023-12-14T08:45:58;6.70;99.90
77829;DHT22;67019;51.034;3.728;2023-12-14T08:48:26;6.80;99.90
77829;DHT22;67019;51.034;3.728;2023-12-14T08:50:54;6.80;99.90
77829;DHT22;67019;51.034;3.728;2023-12-14T08:53:24;6.80;99.90
77829;DHT22;67019;51.034;3.728;2023-12-14T08:55:54;6.90;99.90
77829;DHT22;67019;51.034;3.728;2023-12-14T08:58:22;6.90;99.90
77829;DHT22;67019;51.034;3.728;2023-12-14T09:00:50;6.90;99.90
77829;DHT22;67019;51.034;3.728;2023-12-14T09:03:20;6.90;99.90
77829;DHT22;67019;51.034;3.728;2023-12-14T09:05:47;7.00;99.90
77829;DHT22;67019;51.034;3.728;2023-12-14T09:08:15;7.00;99.90
77829;DHT22;67019;51.034;3.728;2023-12-14T09:10:42;7.20;99.90
77829;DHT22;67019;51.034;3.728;2023-12-14T09:13:10;7.30;99.90
77829;DHT22;67019;51.034;3.728;2023-12-14T09:15:42;7.20;99.90
77829;DHT22;67019;51.034;3.728;2023-12-14T09:18:09;7.10;99.90
77829;DHT22;67019;51.034;3.728;2023-12-14T09:20:37;6.90;99.90
77829;DHT22;67019;51.034;3.728;2023-12-14T09:23:06;6.80;99.90
77829;DHT22;67019;51.034;3.728;2023-12-14T09:25:34;6.80;99.90
77829;DHT22;67019;51.034;3.728;2023-12-14T09:28:01;7.00;99.90
77829;DHT22;67019;51.034;3.728;2023-12-14T09:30:29;7.00;99.90
77829;DHT22;67019;51.034;3.728;2023-12-14T09:32:56;7.00;99.90
77829;DHT22;67019;51.034;3.728;2023-12-14T09:35:25;7.00;99.90
77829;DHT22;67019;51.034;3.728;2023-12-14T09:37:53;6.80;99.90
77829;DHT22;67019;51.034;3.728;2023-12-14T09:40:24;6.90;99.90
77829;DHT22;67019;51.034;3.728;2023-12-14T09:42:52;6.90;99.90
77829;DHT22;67019;51.034;3.728;2023-12-14T09:45:21;7.00;99.90
77829;DHT22;67019;51.034;3.728;2023-12-14T09:47:50;7.20;99.90
77829;DHT22;67019;51.034;3.728;2023-12-14T09:50:19;7.30;99.90
77829;DHT22;67019;51.034;3.728;2023-12-14T09:52:47;7.00;99.90
77829;DHT22;67019;51.034;3.728;2023-12-14T09:55:16;7.00;99.90
77829;DHT22;67019;51.034;3.728;2023-12-14T09:57:46;6.90;99.90
77829;DHT22;67019;51.034;3.728;2023-12-14T10:00:31;6.00;99.90
77829;DHT22;67019;51.034;3.728;2023-12-14T10:02:43;7.00;99.90
77829;DHT22;67019;51.034;3.728;2023-12-14T10:05:12;7.20;99.90
77829;DHT22;67019;51.034;3.728;2023-12-14T10:07:43;7.30;99.90
77829;DHT22;67019;51.034;3.728;2023-12-14T10:10:12;7.00;99.90
77829;DHT22;67019;51.034;3.728;2023-12-14T10:12:53;7.00;99.90
77829;DHT22;67019;51.034;3.728;2023-12-14T10:15:20;6.80;99.90
77829;DHT22;67019;51.034;3.728;2023-12-14T10:17:51;6.90;99.90
77829;DHT22;67019;51.034;3.728;2023-12-14T10:20:21;6.90;99.90
77829;DHT22;67019;51.034;3.728;2023-12-14T10:22:49;7.00;99.90
77829;DHT22;67019;51.034;3.728;2023-12-14T10:25:20;6.40;99.90
77829;DHT22;67019;51.034;3.728;2023-12-14T10:27:48;6.70;99.90
77829;DHT22;67019;51.034;3.728;2023-12-14T10:30:16;6.70;99.90
77829;DHT22;67019;51.034;3.728;2023-12-14T10:32:43;6.60;99.90
77829;DHT22;67019;51.034;3.728;2023-12-14T10:35:12;6.80;99.90
77829;DHT22;67019;51.034;3.728;2023-12-14T10:37:40;6.70;99.90
77829;DHT22;67019;51.034;3.728;2023-12-14T10:40:09;6.60;99.90
77829;DHT22;67019;51.034;3.728;2023-12-14T10:42:43;6.60;99.90
77829;DHT22;67019;51.034;3.728;2023-12-14T10:45:21;6.80;99.90
77829;DHT22;67019;51.034;3.728;2023-12-14T10:48:03;6.70;99.90
77829;DHT22;67019;51.034;3.728;2023-12-14T10:50:31;6.80;99.90
77829;DHT22;67019;51.034;3.728;2023-12-14T10:52:58;6.90;99.90
77829;DHT22;67019;51.034;3.728;2023-12-14T10:58:05;6.90;99.90
77829;DHT22;67019;51.034;3.728;2023-12-14T11:00:33;7.00;99.90
77829;DHT22;67019;51.034;3.728;2023-12-14T11:03:00;7.10;99.90
77829;DHT22;67019;51.034;3.728;2023-12-14T11:05:28;7.20;99.90
77829;DHT22;67019;51.034;3.728;2023-12-14T11:08:00;7.00;99.90
77829;DHT22;67019;51.034;3.728;2023-12-14T11:10:53;6.90;99.90
77829;DHT22;67019;51.034;3.728;2023-12-14T11:13:24;7.00;99.90
77829;DHT22;67019;51.034;3.728;2023-12-14T11:15:52;7.00;99.90
77829;DHT22;67019;51.034;3.728;2023-12-14T11:18:21;7.30;99.90
77829;DHT22;67019;51.034;3.728;2023-12-14T11:20:53;7.20;99.90
77829;DHT22;67019;51.034;3.728;2023-12-14T11:23:26;7.20;99.90
77829;DHT22;67019;51.034;3.728;2023-12-14T11:25:58;7.30;99.90
77829;DHT22;67019;51.034;3.728;2023-12-14T11:28:30;7.40;99.90
77829;DHT22;67019;51.034;3.728;2023-12-14T11:31:01;7.50;99.90
77829;DHT22;67019;51.034;3.728;2023-12-14T11:33:31;7.30;99.90
77829;DHT22;67019;51.034;3.728;2023-12-14T11:36:00;7.40;99.90
77829;DHT22;67019;51.034;3.728;2023-12-14T11:38:27;7.40;99.90
77829;DHT22;67019;51.034;3.728;2023-12-14T11:40:55;7.60;99.90
77829;DHT22;67019;51.034;3.728;2023-12-14T11:43:26;7.50;99.90
77829;DHT22;67019;51.034;3.728;2023-12-14T11:45:58;7.30;99.90
77829;DHT22;67019;51.034;3.728;2023-12-14T11:48:27;7.50;99.90
77829;DHT22;67019;51.034;3.728;2023-12-14T11:50:54;7.40;99.90
77829;DHT22;67019;51.034;3.728;2023-12-14T11:53:25;7.50;99.90
77829;DHT22;67019;51.034;3.728;2023-12-14T11:55:55;7.40;99.90
77829;DHT22;67019;51.034;3.728;2023-12-14T11:58:24;7.70;99.90
77829;DHT22;67019;51.034;3.728;2023-12-14T12:01:00;7.60;99.90
77829;DHT22;67019;51.034;3.728;2023-12-14T12:03:24;7.70;99.90
77829;DHT22;67019;51.034;3.728;2023-12-14T12:05:52;7.60;99.90
77829;DHT22;67019;51.034;3.728;2023-12-14T12:08:20;7.60;99.90
77829;DHT22;67019;51.034;3.728;2023-12-14T12:10:48;7.70;99.90
77829;DHT22;67019;51.034;3.728;2023-12-14T12:13:26;7.70;99.90
77829;DHT22;67019;51.034;3.728;2023-12-14T12:16:03;7.60;99.90
77829;DHT22;67019;51.034;3.728;2023-12-14T12:18:33;7.50;99.90
77829;DHT22;67019;51.034;3.728;2023-12-14T12:21:00;7.60;99.90
77829;DHT22;67019;51.034;3.728;2023-12-14T12:23:33;7.60;99.90
77829;DHT22;67019;51.034;3.728;2023-12-14T12:26:20;7.70;99.90
77829;DHT22;67019;51.034;3.728;2023-12-14T12:28:48;7.60;99.90
77829;DHT22;67019;51.034;3.728;2023-12-14T12:31:16;7.60;99.90
77829;DHT22;67019;51.034;3.728;2023-12-14T12:33:43;7.50;99.90
77829;DHT22;67019;51.034;3.728;2023-12-14T12:36:19;7.50;99.90
77829;DHT22;67019;51.034;3.728;2023-12-14T12:38:43;7.50;99.90
77829;DHT22;67019;51.034;3.728;2023-12-14T12:41:11;7.70;99.90
77829;DHT22;67019;51.034;3.728;2023-12-14T12:43:39;7.60;99.90
77829;DHT22;67019;51.034;3.728;2023-12-14T12:46:13;7.70;99.90
77829;DHT22;67019;51.034;3.728;2023-12-14T12:48:38;7.10;99.90
77829;DHT22;67019;51.034;3.728;2023-12-14T12:51:07;7.40;99.90
77829;DHT22;67019;51.034;3.728;2023-12-14T12:53:37;7.30;99.90
77829;DHT22;67019;51.034;3.728;2023-12-14T12:56:06;7.40;99.90
77829;DHT22;67019;51.034;3.728;2023-12-14T12:58:34;7.50;99.90
77829;DHT22;67019;51.034;3.728;2023-12-14T13:01:04;7.60;99.90
77829;DHT22;67019;51.034;3.728;2023-12-14T13:03:32;7.60;99.90
77829;DHT22;67019;51.034;3.728;2023-12-14T13:06:00;7.70;99.90
77829;DHT22;67019;51.034;3.728;2023-12-14T13:08:27;7.80;99.90
77829;DHT22;67019;51.034;3.728;2023-12-14T13:10:56;7.80;99.90
77829;DHT22;67019;51.034;3.728;2023-12-14T13:13:24;7.90;99.90
77829;DHT22;67019;51.034;3.728;2023-12-14T13:15:53;7.80;99.90
77829;DHT22;67019;51.034;3.728;2023-12-14T13:18:23;8.00;99.90
77829;DHT22;67019;51.034;3.728;2023-12-14T13:20:50;8.00;99.90
77829;DHT22;67019;51.034;3.728;2023-12-14T13:23:19;8.40;99.90
77829;DHT22;67019;51.034;3.728;2023-12-14T13:25:48;8.30;99.90
77829;DHT22;67019;51.034;3.728;2023-12-14T13:28:17;8.10;99.90
77829;DHT22;67019;51.034;3.728;2023-12-14T13:30:47;8.00;99.90
77829;DHT22;67019;51.034;3.728;2023-12-14T13:33:14;8.10;99.90
77829;DHT22;67019;51.034;3.728;2023-12-14T13:35:42;8.20;99.90
77829;DHT22;67019;51.034;3.728;2023-12-14T13:38:12;8.10;99.90
77829;DHT22;67019;51.034;3.728;2023-12-14T13:40:41;8.20;99.90
77829;DHT22;67019;51.034;3.728;2023-12-14T13:43:10;8.40;99.90
77829;DHT22;67019;51.034;3.728;2023-12-14T13:45:38;8.60;99.90
77829;DHT22;67019;51.034;3.728;2023-12-14T13:48:10;8.40;99.90
77829;DHT22;67019;51.034;3.728;2023-12-14T13:50:40;8.30;99.90
77829;DHT22;67019;51.034;3.728;2023-12-14T13:53:10;8.30;99.90
77829;DHT22;67019;51.034;3.728;2023-12-14T13:55:37;8.20;99.90
77829;DHT22;67019;51.034;3.728;2023-12-14T13:58:05;8.20;99.90
77829;DHT22;67019;51.034;3.728;2023-12-14T14:00:34;8.20;99.90
77829;DHT22;67019;51.034;3.728;2023-12-14T14:03:04;8.10;99.90
77829;DHT22;67019;51.034;3.728;2023-12-14T14:05:33;8.20;99.90
77829;DHT22;67019;51.034;3.728;2023-12-14T14:08:02;8.10;99.90
77829;DHT22;67019;51.034;3.728;2023-12-14T14:10:31;8.20;99.90
77829;DHT22;67019;51.034;3.728;2023-12-14T14:13:00;8.30;99.90
77829;DHT22;67019;51.034;3.728;2023-12-14T14:15:28;8.30;99.90
77829;DHT22;67019;51.034;3.728;2023-12-14T14:18:01;8.30;99.90
77829;DHT22;67019;51.034;3.728;2023-12-14T14:20:39;8.20;99.90
77829;DHT22;67019;51.034;3.728;2023-12-14T14:23:08;8.00;99.90
77829;DHT22;67019;51.034;3.728;2023-12-14T14:25:37;8.00;99.90
77829;DHT22;67019;51.034;3.728;2023-12-14T14:28:07;8.10;99.90
77829;DHT22;67019;51.034;3.728;2023-12-14T14:30:35;8.20;99.90
77829;DHT22;67019;51.034;3.728;2023-12-14T14:33:07;8.30;99.90
77829;DHT22;67019;51.034;3.728;2023-12-14T14:35:34;8.20;99.90
77829;DHT22;67019;51.034;3.728;2023-12-14T14:38:07;8.00;99.90
77829;DHT22;67019;51.034;3.728;2023-12-14T14:40:37;8.10;99.90
77829;DHT22;67019;51.034;3.728;2023-12-14T14:43:06;8.20;99.90
77829;DHT22;67019;51.034;3.728;2023-12-14T14:45:33;8.20;99.90
77829;DHT22;67019;51.034;3.728;2023-12-14T14:48:01;8.10;99.90
77829;DHT22;67019;51.034;3.728;2023-12-14T14:50:29;8.10;99.90
77829;DHT22;67019;51.034;3.728;2023-12-14T14:52:57;8.10;99.90
77829;DHT22;67019;51.034;3.728;2023-12-14T14:55:24;7.90;99.90
77829;DHT22;67019;51.034;3.728;2023-12-14T14:57:53;8.00;99.90
77829;DHT22;67019;51.034;3.728;2023-12-14T15:00:22;8.00;99.90
77829;DHT22;67019;51.034;3.728;2023-12-14T15:02:50;8.00;99.90
77829;DHT22;67019;51.034;3.728;2023-12-14T15:05:37;7.90;99.90
77829;DHT22;67019;51.034;3.728;2023-12-14T15:08:06;7.80;99.90
77829;DHT22;67019;51.034;3.728;2023-12-14T15:10:35;7.70;99.90
77829;DHT22;67019;51.034;3.728;2023-12-14T15:13:04;7.50;99.90
77829;DHT22;67019;51.034;3.728;2023-12-14T15:15:36;7.50;99.90
77829;DHT22;67019;51.034;3.728;2023-12-14T15:18:04;7.50;99.90
77829;DHT22;67019;51.034;3.728;2023-12-14T15:20:33;7.50;99.90
77829;DHT22;67019;51.034;3.728;2023-12-14T15:23:04;7.50;99.90
77829;DHT22;67019;51.034;3.728;2023-12-14T15:25:38;7.60;99.90
77829;DHT22;67019;51.034;3.728;2023-12-14T15:28:06;7.60;99.90
77829;DHT22;67019;51.034;3.728;2023-12-14T15:30:39;7.50;99.90
77829;DHT22;67019;51.034;3.728;2023-12-14T15:33:16;7.30;99.90
77829;DHT22;67019;51.034;3.728;2023-12-14T15:35:40;7.50;99.90
77829;DHT22;67019;51.034;3.728;2023-12-14T15:38:19;7.40;99.90
77829;DHT22;67019;51.034;3.728;2023-12-14T15:40:46;7.30;99.90
77829;DHT22;67019;51.034;3.728;2023-12-14T15:43:18;7.20;99.90
77829;DHT22;67019;51.034;3.728;2023-12-14T15:45:54;7.10;99.90
77829;DHT22;67019;51.034;3.728;2023-12-14T15:48:30;7.20;99.90
77829;DHT22;67019;51.034;3.728;2023-12-14T15:50:59;7.30;99.90
77829;DHT22;67019;51.034;3.728;2023-12-14T15:53:34;7.30;99.90
77829;DHT22;67019;51.034;3.728;2023-12-14T15:56:07;7.20;99.90
77829;DHT22;67019;51.034;3.728;2023-12-14T15:58:35;7.10;99.90
77829;DHT22;67019;51.034;3.728;2023-12-14T16:01:07;7.10;99.90